sensor_id;sensor_type;location;lat;lon;timestamp;temperature;humidity
20712;DHT22;10517;50.742;4.224;2023-05-10T00:01:46;13.90;99.90
20712;DHT22;10517;50.742;4.224;2023-05-10T00:04:11;14.00;99.90
20712;DHT22;10517;50.742;4.224;2023-05-10T00:06:37;14.00;99.90
20712;DHT22;10517;50.742;4.224;2023-05-10T00:09:03;14.00;99.90
20712;DHT22;10517;50.742;4.224;2023-05-10T00:11:29;13.90;99.90
20712;DHT22;10517;50.742;4.224;2023-05-10T00:13:54;13.90;99.90
20712;DHT22;10517;50.742;4.224;2023-05-10T00:16:20;13.90;99.90
20712;DHT22;10517;50.742;4.224;2023-05-10T00:18:46;13.90;99.90
20712;DHT22;10517;50.742;4.224;2023-05-10T00:21:11;13.90;99.90
20712;DHT22;10517;50.742;4.224;2023-05-10T00:23:37;14.00;99.90
20712;DHT22;10517;50.742;4.224;2023-05-10T00:26:03;14.10;99.90
20712;DHT22;10517;50.742;4.224;2023-05-10T00:28:29;14.10;99.90
20712;DHT22;10517;50.742;4.224;2023-05-10T00:30:55;14.10;99.90
20712;DHT22;10517;50.742;4.224;2023-05-10T00:33:21;14.00;99.90
20712;DHT22;10517;50.742;4.224;2023-05-10T00:35:46;14.00;99.90
20712;DHT22;10517;50.742;4.224;2023-05-10T00:38:12;14.00;99.90
20712;DHT22;10517;50.742;4.224;2023-05-10T00:40:38;13.90;99.90
20712;DHT22;10517;50.742;4.224;2023-05-10T00:43:04;14.00;99.90
20712;DHT22;10517;50.742;4.224;2023-05-10T00:45:31;14.00;99.90
20712;DHT22;10517;50.742;4.224;2023-05-10T00:47:59;14.10;99.90
20712;DHT22;10517;50.742;4.224;2023-05-10T00:50:25;14.10;99.90
20712;DHT22;10517;50.742;4.224;2023-05-10T00:52:51;14.10;99.90
20712;DHT22;10517;50.742;4.224;2023-05-10T00:55:18;14.00;99.90
20712;DHT22;10517;50.742;4.224;2023-05-10T00:57:44;14.00;99.90
20712;DHT22;10517;50.742;4.224;2023-05-10T01:00:10;13.90;99.90
20712;DHT22;10517;50.742;4.224;2023-05-10T01:02:36;13.90;99.90
20712;DHT22;10517;50.742;4.224;2023-05-10T01:05:03;13.90;99.90
20712;DHT22;10517;50.742;4.224;2023-05-10T01:07:29;13.90;99.90
20712;DHT22;10517;50.742;4.224;2023-05-10T01:09:55;13.90;99.90
20712;DHT22;10517;50.742;4.224;2023-05-10T01:12:21;14.00;99.90
20712;DHT22;10517;50.742;4.224;2023-05-10T01:14:48;14.00;99.90
20712;DHT22;10517;50.742;4.224;2023-05-10T01:17:14;13.90;99.90
20712;DHT22;10517;50.742;4.224;2023-05-10T01:19:40;13.90;99.90
20712;DHT22;10517;50.742;4.224;2023-05-10T01:38:33;13.90;99.90
20712;DHT22;10517;50.742;4.224;2023-05-10T01:44:38;13.90;99.90
20712;DHT22;10517;50.742;4.224;2023-05-10T01:47:17;13.90;99.90
20712;DHT22;10517;50.742;4.224;2023-05-10T01:49:53;13.90;99.90
20712;DHT22;10517;50.742;4.224;2023-05-10T01:52:25;13.80;99.90
20712;DHT22;10517;50.742;4.224;2023-05-10T01:55:02;13.70;99.90
20712;DHT22;10517;50.742;4.224;2023-05-10T01:57:34;13.80;99.90
20712;DHT22;10517;50.742;4.224;2023-05-10T02:00:02;13.80;99.90
20712;DHT22;10517;50.742;4.224;2023-05-10T02:02:37;13.80;99.90
20712;DHT22;10517;50.742;4.224;2023-05-10T02:05:05;13.80;99.90
20712;DHT22;10517;50.742;4.224;2023-05-10T02:07:34;13.80;99.90
20712;DHT22;10517;50.742;4.224;2023-05-10T02:10:05;13.80;99.90
20712;DHT22;10517;50.742;4.224;2023-05-10T02:12:36;13.80;99.90
20712;DHT22;10517;50.742;4.224;2023-05-10T02:15:03;13.80;99.90
20712;DHT22;10517;50.742;4.224;2023-05-10T02:17:32;13.80;99.90
20712;DHT22;10517;50.742;4.224;2023-05-10T02:19:59;13.80;99.90
20712;DHT22;10517;50.742;4.224;2023-05-10T02:22:27;13.70;99.90
20712;DHT22;10517;50.742;4.224;2023-05-10T02:24:54;13.70;99.90
20712;DHT22;10517;50.742;4.224;2023-05-10T02:27:23;13.60;99.90
20712;DHT22;10517;50.742;4.224;2023-05-10T02:29:50;13.50;99.90
20712;DHT22;10517;50.742;4.224;2023-05-10T02:32:17;13.30;99.90
20712;DHT22;10517;50.742;4.224;2023-05-10T02:34:44;13.30;99.90
20712;DHT22;10517;50.742;4.224;2023-05-10T02:37:13;13.30;99.90
20712;DHT22;10517;50.742;4.224;2023-05-10T02:39:40;13.30;99.90
20712;DHT22;10517;50.742;4.224;2023-05-10T02:42:12;13.30;99.90
20712;DHT22;10517;50.742;4.224;2023-05-10T02:44:41;13.30;99.90
20712;DHT22;10517;50.742;4.224;2023-05-10T02:47:07;13.30;99.90
20712;DHT22;10517;50.742;4.224;2023-05-10T02:49:33;13.30;99.90
20712;DHT22;10517;50.742;4.224;2023-05-10T02:52:01;13.40;99.90
20712;DHT22;10517;50.742;4.224;2023-05-10T02:54:31;13.50;99.90
20712;DHT22;10517;50.742;4.224;2023-05-10T02:57:00;13.60;99.90
20712;DHT22;10517;50.742;4.224;2023-05-10T02:59:29;13.60;99.90
20712;DHT22;10517;50.742;4.224;2023-05-10T03:01:54;13.70;99.90
20712;DHT22;10517;50.742;4.224;2023-05-10T03:04:20;13.70;99.90
20712;DHT22;10517;50.742;4.224;2023-05-10T03:06:46;13.60;99.90
20712;DHT22;10517;50.742;4.224;2023-05-10T03:09:12;13.60;99.90
20712;DHT22;10517;50.742;4.224;2023-05-10T03:15:00;13.50;99.90
20712;DHT22;10517;50.742;4.224;2023-05-10T03:17:56;13.50;99.90
20712;DHT22;10517;50.742;4.224;2023-05-10T03:20:30;13.40;99.90
20712;DHT22;10517;50.742;4.224;2023-05-10T03:23:04;13.30;99.90
20712;DHT22;10517;50.742;4.224;2023-05-10T03:25:33;13.30;99.90
20712;DHT22;10517;50.742;4.224;2023-05-10T03:28:01;13.30;99.90
20712;DHT22;10517;50.742;4.224;2023-05-10T03:30:28;13.40;99.90
20712;DHT22;10517;50.742;4.224;2023-05-10T03:32:54;13.40;99.90
20712;DHT22;10517;50.742;4.224;2023-05-10T03:35:20;13.20;99.90
20712;DHT22;10517;50.742;4.224;2023-05-10T03:37:46;13.10;99.90
20712;DHT22;10517;50.742;4.224;2023-05-10T03:40:12;13.00;99.90
20712;DHT22;10517;50.742;4.224;2023-05-10T03:42:37;13.00;99.90
20712;DHT22;10517;50.742;4.224;2023-05-10T03:45:06;13.00;99.90
20712;DHT22;10517;50.742;4.224;2023-05-10T03:47:32;13.00;99.90
20712;DHT22;10517;50.742;4.224;2023-05-10T03:49:58;13.00;99.90
20712;DHT22;10517;50.742;4.224;2023-05-10T03:52:23;13.00;99.90
20712;DHT22;10517;50.742;4.224;2023-05-10T03:54:49;13.00;99.90
20712;DHT22;10517;50.742;4.224;2023-05-10T03:57:14;12.90;99.90
20712;DHT22;10517;50.742;4.224;2023-05-10T03:59:40;13.00;99.90
20712;DHT22;10517;50.742;4.224;2023-05-10T04:02:06;13.00;99.90
20712;DHT22;10517;50.742;4.224;2023-05-10T04:04:31;13.00;99.90
20712;DHT22;10517;50.742;4.224;2023-05-10T04:06:57;13.00;99.90
20712;DHT22;10517;50.742;4.224;2023-05-10T04:09:23;12.90;99.90
20712;DHT22;10517;50.742;4.224;2023-05-10T04:11:48;12.90;99.90
20712;DHT22;10517;50.742;4.224;2023-05-10T04:14:14;12.90;99.90
20712;DHT22;10517;50.742;4.224;2023-05-10T04:16:39;12.90;99.90
20712;DHT22;10517;50.742;4.224;2023-05-10T04:19:05;12.80;99.90
20712;DHT22;10517;50.742;4.224;2023-05-10T04:21:31;12.80;99.90
20712;DHT22;10517;50.742;4.224;2023-05-10T04:23:56;12.70;99.90
20712;DHT22;10517;50.742;4.224;2023-05-10T04:26:22;12.50;99.90
20712;DHT22;10517;50.742;4.224;2023-05-10T04:28:48;12.50;99.90
20712;DHT22;10517;50.742;4.224;2023-05-10T04:31:13;12.40;99.90
20712;DHT22;10517;50.742;4.224;2023-05-10T04:33:39;12.30;99.90
20712;DHT22;10517;50.742;4.224;2023-05-10T04:36:05;12.20;99.90
20712;DHT22;10517;50.742;4.224;2023-05-10T04:38:31;12.10;99.90
20712;DHT22;10517;50.742;4.224;2023-05-10T04:41:10;12.10;99.90
20712;DHT22;10517;50.742;4.224;2023-05-10T04:43:36;12.00;99.90
20712;DHT22;10517;50.742;4.224;2023-05-10T04:46:02;12.00;99.90
20712;DHT22;10517;50.742;4.224;2023-05-10T04:48:29;12.00;99.90
20712;DHT22;10517;50.742;4.224;2023-05-10T04:50:54;12.20;99.90
20712;DHT22;10517;50.742;4.224;2023-05-10T04:53:20;12.20;99.90
20712;DHT22;10517;50.742;4.224;2023-05-10T04:55:46;12.20;99.90
20712;DHT22;10517;50.742;4.224;2023-05-10T04:58:12;12.20;99.90
20712;DHT22;10517;50.742;4.224;2023-05-10T05:00:37;12.30;99.90
20712;DHT22;10517;50.742;4.224;2023-05-10T05:03:03;12.30;99.90
20712;DHT22;10517;50.742;4.224;2023-05-10T05:05:29;12.20;99.90
20712;DHT22;10517;50.742;4.224;2023-05-10T05:07:54;12.10;99.90
20712;DHT22;10517;50.742;4.224;2023-05-10T05:10:20;12.10;99.90
20712;DHT22;10517;50.742;4.224;2023-05-10T05:12:45;12.10;99.90
20712;DHT22;10517;50.742;4.224;2023-05-10T05:15:11;12.20;99.90
20712;DHT22;10517;50.742;4.224;2023-05-10T05:17:37;12.30;99.90
20712;DHT22;10517;50.742;4.224;2023-05-10T05:20:03;12.50;99.90
20712;DHT22;10517;50.742;4.224;2023-05-10T05:22:28;12.50;99.90
20712;DHT22;10517;50.742;4.224;2023-05-10T05:24:55;12.60;99.90
20712;DHT22;10517;50.742;4.224;2023-05-10T05:27:21;12.60;99.90
20712;DHT22;10517;50.742;4.224;2023-05-10T05:29:58;12.60;99.90
20712;DHT22;10517;50.742;4.224;2023-05-10T05:32:25;12.60;99.90
20712;DHT22;10517;50.742;4.224;2023-05-10T05:34:51;12.60;99.90
20712;DHT22;10517;50.742;4.224;2023-05-10T05:37:18;12.70;99.90
20712;DHT22;10517;50.742;4.224;2023-05-10T05:39:45;12.70;99.90
20712;DHT22;10517;50.742;4.224;2023-05-10T05:42:12;12.70;99.90
20712;DHT22;10517;50.742;4.224;2023-05-10T05:44:38;12.70;99.90
20712;DHT22;10517;50.742;4.224;2023-05-10T05:47:04;12.80;99.90
20712;DHT22;10517;50.742;4.224;2023-05-10T05:49:29;12.90;99.90
20712;DHT22;10517;50.742;4.224;2023-05-10T05:52:02;12.90;99.90
20712;DHT22;10517;50.742;4.224;2023-05-10T05:54:28;13.00;99.90
20712;DHT22;10517;50.742;4.224;2023-05-10T05:56:58;12.90;99.90
20712;DHT22;10517;50.742;4.224;2023-05-10T05:59:27;13.00;99.90
20712;DHT22;10517;50.742;4.224;2023-05-10T06:01:53;12.90;99.90
20712;DHT22;10517;50.742;4.224;2023-05-10T06:04:19;12.90;99.90
20712;DHT22;10517;50.742;4.224;2023-05-10T06:06:45;12.90;99.90
20712;DHT22;10517;50.742;4.224;2023-05-10T06:09:11;12.90;99.90
20712;DHT22;10517;50.742;4.224;2023-05-10T06:11:37;12.90;99.90
20712;DHT22;10517;50.742;4.224;2023-05-10T06:14:03;12.90;99.90
20712;DHT22;10517;50.742;4.224;2023-05-10T06:16:33;12.90;99.90
20712;DHT22;10517;50.742;4.224;2023-05-10T06:18:59;12.90;99.90
20712;DHT22;10517;50.742;4.224;2023-05-10T06:21:25;12.90;99.90
20712;DHT22;10517;50.742;4.224;2023-05-10T06:23:50;12.90;99.90
20712;DHT22;10517;50.742;4.224;2023-05-10T06:26:16;12.90;99.90
20712;DHT22;10517;50.742;4.224;2023-05-10T06:28:42;13.00;99.90
20712;DHT22;10517;50.742;4.224;2023-05-10T06:31:08;13.00;99.90
20712;DHT22;10517;50.742;4.224;2023-05-10T06:33:34;13.00;99.90
20712;DHT22;10517;50.742;4.224;2023-05-10T06:35:59;13.00;99.90
20712;DHT22;10517;50.742;4.224;2023-05-10T06:38:25;13.00;99.90
20712;DHT22;10517;50.742;4.224;2023-05-10T06:40:51;12.90;99.90
20712;DHT22;10517;50.742;4.224;2023-05-10T06:43:17;12.90;99.90
20712;DHT22;10517;50.742;4.224;2023-05-10T06:45:42;13.00;99.90
20712;DHT22;10517;50.742;4.224;2023-05-10T06:48:08;12.90;99.90
20712;DHT22;10517;50.742;4.224;2023-05-10T06:50:34;12.90;99.90
20712;DHT22;10517;50.742;4.224;2023-05-10T06:53:00;12.90;99.90
20712;DHT22;10517;50.742;4.224;2023-05-10T06:55:27;13.00;99.90
20712;DHT22;10517;50.742;4.224;2023-05-10T06:57:53;13.10;99.90
20712;DHT22;10517;50.742;4.224;2023-05-10T07:00:19;13.10;99.90
20712;DHT22;10517;50.742;4.224;2023-05-10T07:02:45;13.20;99.90
20712;DHT22;10517;50.742;4.224;2023-05-10T07:05:11;13.10;99.90
20712;DHT22;10517;50.742;4.224;2023-05-10T07:07:37;13.20;99.90
20712;DHT22;10517;50.742;4.224;2023-05-10T07:10:03;13.20;99.90
20712;DHT22;10517;50.742;4.224;2023-05-10T07:12:29;13.30;99.90
20712;DHT22;10517;50.742;4.224;2023-05-10T07:14:55;13.40;99.90
20712;DHT22;10517;50.742;4.224;2023-05-10T07:17:20;13.50;99.90
20712;DHT22;10517;50.742;4.224;2023-05-10T07:19:46;13.50;99.90
20712;DHT22;10517;50.742;4.224;2023-05-10T07:22:12;13.50;99.90
20712;DHT22;10517;50.742;4.224;2023-05-10T07:24:38;13.50;99.90
20712;DHT22;10517;50.742;4.224;2023-05-10T07:27:04;13.40;99.90
20712;DHT22;10517;50.742;4.224;2023-05-10T07:29:30;13.40;99.90
20712;DHT22;10517;50.742;4.224;2023-05-10T07:31:56;13.40;99.90
20712;DHT22;10517;50.742;4.224;2023-05-10T07:34:21;13.50;99.90
20712;DHT22;10517;50.742;4.224;2023-05-10T07:36:47;13.50;99.90
20712;DHT22;10517;50.742;4.224;2023-05-10T07:39:13;13.60;99.90
20712;DHT22;10517;50.742;4.224;2023-05-10T07:41:38;13.60;99.90
20712;DHT22;10517;50.742;4.224;2023-05-10T07:44:05;13.70;99.90
20712;DHT22;10517;50.742;4.224;2023-05-10T07:46:31;13.70;99.90
20712;DHT22;10517;50.742;4.224;2023-05-10T07:48:57;13.70;99.90
20712;DHT22;10517;50.742;4.224;2023-05-10T07:51:22;13.80;99.90
20712;DHT22;10517;50.742;4.224;2023-05-10T07:53:48;13.90;99.90
20712;DHT22;10517;50.742;4.224;2023-05-10T07:56:31;14.00;99.90
20712;DHT22;10517;50.742;4.224;2023-05-10T07:59:00;14.00;99.90
20712;DHT22;10517;50.742;4.224;2023-05-10T08:01:29;13.90;99.90
20712;DHT22;10517;50.742;4.224;2023-05-10T08:03:55;13.80;99.90
20712;DHT22;10517;50.742;4.224;2023-05-10T08:06:21;13.70;99.90
20712;DHT22;10517;50.742;4.224;2023-05-10T08:08:48;13.80;99.90
20712;DHT22;10517;50.742;4.224;2023-05-10T08:11:19;13.80;99.90
20712;DHT22;10517;50.742;4.224;2023-05-10T08:13:46;13.80;99.90
20712;DHT22;10517;50.742;4.224;2023-05-10T08:16:12;13.70;99.90
20712;DHT22;10517;50.742;4.224;2023-05-10T08:18:38;13.80;99.90
20712;DHT22;10517;50.742;4.224;2023-05-10T08:21:04;14.00;99.90
20712;DHT22;10517;50.742;4.224;2023-05-10T08:23:30;13.90;99.90
20712;DHT22;10517;50.742;4.224;2023-05-10T08:25:56;13.80;99.90
20712;DHT22;10517;50.742;4.224;2023-05-10T08:28:22;13.90;99.90
20712;DHT22;10517;50.742;4.224;2023-05-10T08:30:47;13.90;99.90
20712;DHT22;10517;50.742;4.224;2023-05-10T08:33:13;13.80;99.90
20712;DHT22;10517;50.742;4.224;2023-05-10T08:35:39;13.80;99.90
20712;DHT22;10517;50.742;4.224;2023-05-10T08:38:04;13.90;99.90
20712;DHT22;10517;50.742;4.224;2023-05-10T08:40:30;14.00;99.90
20712;DHT22;10517;50.742;4.224;2023-05-10T08:43:02;14.10;99.90
20712;DHT22;10517;50.742;4.224;2023-05-10T08:45:32;14.10;99.90
20712;DHT22;10517;50.742;4.224;2023-05-10T08:48:05;14.20;99.90
20712;DHT22;10517;50.742;4.224;2023-05-10T08:50:31;14.10;99.90
20712;DHT22;10517;50.742;4.224;2023-05-10T08:53:00;14.10;99.90
20712;DHT22;10517;50.742;4.224;2023-05-10T08:55:27;14.10;99.90
20712;DHT22;10517;50.742;4.224;2023-05-10T08:57:53;14.10;99.90
20712;DHT22;10517;50.742;4.224;2023-05-10T09:00:20;14.20;99.90
20712;DHT22;10517;50.742;4.224;2023-05-10T09:02:45;14.20;99.90
20712;DHT22;10517;50.742;4.224;2023-05-10T09:05:12;14.30;99.90
20712;DHT22;10517;50.742;4.224;2023-05-10T09:07:37;14.40;99.90
20712;DHT22;10517;50.742;4.224;2023-05-10T09:10:04;14.10;99.90
20712;DHT22;10517;50.742;4.224;2023-05-10T09:12:30;14.20;99.90
20712;DHT22;10517;50.742;4.224;2023-05-10T09:14:58;14.10;99.90
20712;DHT22;10517;50.742;4.224;2023-05-10T09:17:25;14.00;99.90
20712;DHT22;10517;50.742;4.224;2023-05-10T09:20:10;14.10;99.90
20712;DHT22;10517;50.742;4.224;2023-05-10T09:22:36;14.10;99.90
20712;DHT22;10517;50.742;4.224;2023-05-10T09:25:14;14.10;99.90
20712;DHT22;10517;50.742;4.224;2023-05-10T09:27:41;14.30;99.90
20712;DHT22;10517;50.742;4.224;2023-05-10T09:30:09;14.30;99.90
20712;DHT22;10517;50.742;4.224;2023-05-10T09:32:39;14.50;99.90
20712;DHT22;10517;50.742;4.224;2023-05-10T09:35:13;14.50;99.90
20712;DHT22;10517;50.742;4.224;2023-05-10T09:37:40;14.50;99.90
20712;DHT22;10517;50.742;4.224;2023-05-10T09:40:21;14.70;99.90
20712;DHT22;10517;50.742;4.224;2023-05-10T09:43:10;14.80;99.90
20712;DHT22;10517;50.742;4.224;2023-05-10T09:45:36;14.90;99.90
20712;DHT22;10517;50.742;4.224;2023-05-10T09:48:03;14.90;99.90
20712;DHT22;10517;50.742;4.224;2023-05-10T09:50:29;14.90;99.90
20712;DHT22;10517;50.742;4.224;2023-05-10T09:53:01;15.00;99.90
20712;DHT22;10517;50.742;4.224;2023-05-10T09:55:48;15.30;99.90
20712;DHT22;10517;50.742;4.224;2023-05-10T09:58:15;15.70;99.90
20712;DHT22;10517;50.742;4.224;2023-05-10T10:00:43;15.90;99.90
20712;DHT22;10517;50.742;4.224;2023-05-10T10:03:16;16.00;99.90
20712;DHT22;10517;50.742;4.224;2023-05-10T10:05:43;16.20;99.90
20712;DHT22;10517;50.742;4.224;2023-05-10T10:08:09;16.50;99.90
20712;DHT22;10517;50.742;4.224;2023-05-10T10:10:35;16.50;99.90
20712;DHT22;10517;50.742;4.224;2023-05-10T10:13:02;16.80;99.90
20712;DHT22;10517;50.742;4.224;2023-05-10T10:15:27;17.00;99.90
20712;DHT22;10517;50.742;4.224;2023-05-10T10:17:54;17.20;99.90
20712;DHT22;10517;50.742;4.224;2023-05-10T10:20:20;17.30;99.90
20712;DHT22;10517;50.742;4.224;2023-05-10T10:22:47;17.20;99.90
20712;DHT22;10517;50.742;4.224;2023-05-10T10:25:15;17.20;99.90
20712;DHT22;10517;50.742;4.224;2023-05-10T10:35:44;17.20;99.90
20712;DHT22;10517;50.742;4.224;2023-05-10T10:38:12;17.20;99.90
20712;DHT22;10517;50.742;4.224;2023-05-10T10:40:38;17.10;99.90
20712;DHT22;10517;50.742;4.224;2023-05-10T10:43:26;17.10;99.90
20712;DHT22;10517;50.742;4.224;2023-05-10T10:46:14;17.30;99.90
20712;DHT22;10517;50.742;4.224;2023-05-10T10:48:41;17.40;99.90
20712;DHT22;10517;50.742;4.224;2023-05-10T10:51:07;17.40;99.90
20712;DHT22;10517;50.742;4.224;2023-05-10T10:53:33;17.50;99.90
20712;DHT22;10517;50.742;4.224;2023-05-10T10:56:12;17.40;99.90
20712;DHT22;10517;50.742;4.224;2023-05-10T10:58:39;17.70;99.90
20712;DHT22;10517;50.742;4.224;2023-05-10T11:01:16;18.00;99.90
20712;DHT22;10517;50.742;4.224;2023-05-10T11:06:32;18.80;99.90
20712;DHT22;10517;50.742;4.224;2023-05-10T11:08:58;18.90;99.90
20712;DHT22;10517;50.742;4.224;2023-05-10T11:11:24;19.00;99.90
20712;DHT22;10517;50.742;4.224;2023-05-10T11:13:51;19.20;99.90
20712;DHT22;10517;50.742;4.224;2023-05-10T11:16:21;19.50;99.90
20712;DHT22;10517;50.742;4.224;2023-05-10T11:19:00;19.70;99.90
20712;DHT22;10517;50.742;4.224;2023-05-10T11:21:28;19.70;99.90
20712;DHT22;10517;50.742;4.224;2023-05-10T11:23:55;19.80;99.90
20712;DHT22;10517;50.742;4.224;2023-05-10T11:26:25;20.00;99.90
20712;DHT22;10517;50.742;4.224;2023-05-10T11:28:53;20.20;99.90
20712;DHT22;10517;50.742;4.224;2023-05-10T11:31:24;20.40;99.90
20712;DHT22;10517;50.742;4.224;2023-05-10T11:33:56;20.60;99.90
20712;DHT22;10517;50.742;4.224;2023-05-10T11:36:26;20.80;99.90
20712;DHT22;10517;50.742;4.224;2023-05-10T11:38:53;20.80;99.90
20712;DHT22;10517;50.742;4.224;2023-05-10T11:41:20;20.90;99.90
20712;DHT22;10517;50.742;4.224;2023-05-10T11:43:49;21.10;99.90
20712;DHT22;10517;50.742;4.224;2023-05-10T11:46:17;21.20;99.90
20712;DHT22;10517;50.742;4.224;2023-05-10T11:48:43;21.00;99.90
20712;DHT22;10517;50.742;4.224;2023-05-10T11:51:10;21.30;99.90
20712;DHT22;10517;50.742;4.224;2023-05-10T11:53:36;21.20;99.90
20712;DHT22;10517;50.742;4.224;2023-05-10T11:56:07;21.10;99.90
20712;DHT22;10517;50.742;4.224;2023-05-10T11:58:34;20.60;99.90
20712;DHT22;10517;50.742;4.224;2023-05-10T12:01:01;20.30;99.90
20712;DHT22;10517;50.742;4.224;2023-05-10T12:03:27;20.60;99.90
20712;DHT22;10517;50.742;4.224;2023-05-10T12:05:53;21.40;99.90
20712;DHT22;10517;50.742;4.224;2023-05-10T12:08:25;22.10;99.90
20712;DHT22;10517;50.742;4.224;2023-05-10T12:10:53;22.20;99.90
20712;DHT22;10517;50.742;4.224;2023-05-10T12:13:20;21.80;99.90
20712;DHT22;10517;50.742;4.224;2023-05-10T12:15:46;21.40;99.90
20712;DHT22;10517;50.742;4.224;2023-05-10T12:18:13;20.60;99.90
20712;DHT22;10517;50.742;4.224;2023-05-10T12:20:39;20.70;99.90
20712;DHT22;10517;50.742;4.224;2023-05-10T12:23:05;20.60;99.90
20712;DHT22;10517;50.742;4.224;2023-05-10T12:25:34;20.60;99.90
20712;DHT22;10517;50.742;4.224;2023-05-10T12:28:03;20.10;99.90
20712;DHT22;10517;50.742;4.224;2023-05-10T12:30:31;19.90;99.90
20712;DHT22;10517;50.742;4.224;2023-05-10T12:33:09;19.90;99.90
20712;DHT22;10517;50.742;4.224;2023-05-10T12:35:44;20.50;99.90
20712;DHT22;10517;50.742;4.224;2023-05-10T12:38:41;21.30;99.90
20712;DHT22;10517;50.742;4.224;2023-05-10T12:41:12;21.80;99.90
20712;DHT22;10517;50.742;4.224;2023-05-10T12:43:38;22.30;99.90
20712;DHT22;10517;50.742;4.224;2023-05-10T12:46:12;22.70;99.90
20712;DHT22;10517;50.742;4.224;2023-05-10T12:48:39;23.00;99.90
20712;DHT22;10517;50.742;4.224;2023-05-10T12:51:06;23.20;99.90
20712;DHT22;10517;50.742;4.224;2023-05-10T12:53:35;23.40;99.90
20712;DHT22;10517;50.742;4.224;2023-05-10T12:56:00;23.60;99.90
20712;DHT22;10517;50.742;4.224;2023-05-10T12:58:26;24.00;99.90
20712;DHT22;10517;50.742;4.224;2023-05-10T13:00:52;24.30;99.90
20712;DHT22;10517;50.742;4.224;2023-05-10T13:03:18;25.20;99.90
20712;DHT22;10517;50.742;4.224;2023-05-10T13:05:44;25.60;99.90
20712;DHT22;10517;50.742;4.224;2023-05-10T13:08:10;25.90;99.90
20712;DHT22;10517;50.742;4.224;2023-05-10T13:10:35;26.30;99.90
20712;DHT22;10517;50.742;4.224;2023-05-10T13:13:01;26.60;99.90
20712;DHT22;10517;50.742;4.224;2023-05-10T13:15:26;27.20;99.90
20712;DHT22;10517;50.742;4.224;2023-05-10T13:17:53;27.60;99.90
20712;DHT22;10517;50.742;4.224;2023-05-10T13:20:18;27.50;99.90
20712;DHT22;10517;50.742;4.224;2023-05-10T13:22:44;27.10;99.90
20712;DHT22;10517;50.742;4.224;2023-05-10T13:25:10;26.90;99.90
20712;DHT22;10517;50.742;4.224;2023-05-10T13:27:39;26.90;99.90
20712;DHT22;10517;50.742;4.224;2023-05-10T13:30:07;27.10;99.90
20712;DHT22;10517;50.742;4.224;2023-05-10T13:32:33;26.90;99.90
20712;DHT22;10517;50.742;4.224;2023-05-10T13:34:58;27.10;99.90
20712;DHT22;10517;50.742;4.224;2023-05-10T13:37:24;26.90;99.90
20712;DHT22;10517;50.742;4.224;2023-05-10T13:39:50;26.90;99.90
20712;DHT22;10517;50.742;4.224;2023-05-10T13:42:15;26.80;99.90
20712;DHT22;10517;50.742;4.224;2023-05-10T13:44:41;26.80;99.90
20712;DHT22;10517;50.742;4.224;2023-05-10T13:47:07;26.30;99.90
20712;DHT22;10517;50.742;4.224;2023-05-10T13:49:32;25.80;99.90
20712;DHT22;10517;50.742;4.224;2023-05-10T13:51:59;25.90;99.90
20712;DHT22;10517;50.742;4.224;2023-05-10T13:54:31;26.30;99.90
20712;DHT22;10517;50.742;4.224;2023-05-10T13:56:56;26.40;99.90
20712;DHT22;10517;50.742;4.224;2023-05-10T13:59:22;26.20;99.90
20712;DHT22;10517;50.742;4.224;2023-05-10T14:01:48;24.80;99.90
20712;DHT22;10517;50.742;4.224;2023-05-10T14:04:14;24.70;99.90
20712;DHT22;10517;50.742;4.224;2023-05-10T14:06:39;23.90;99.90
20712;DHT22;10517;50.742;4.224;2023-05-10T14:09:05;24.00;99.90
20712;DHT22;10517;50.742;4.224;2023-05-10T14:11:31;23.60;99.90
20712;DHT22;10517;50.742;4.224;2023-05-10T14:13:56;23.50;99.90
20712;DHT22;10517;50.742;4.224;2023-05-10T14:16:22;23.30;99.90
20712;DHT22;10517;50.742;4.224;2023-05-10T14:18:47;23.30;99.90
20712;DHT22;10517;50.742;4.224;2023-05-10T14:21:13;23.10;99.90
20712;DHT22;10517;50.742;4.224;2023-05-10T14:23:39;23.00;99.90
20712;DHT22;10517;50.742;4.224;2023-05-10T14:26:04;22.70;99.90
20712;DHT22;10517;50.742;4.224;2023-05-10T14:28:30;22.50;99.90
20712;DHT22;10517;50.742;4.224;2023-05-10T14:30:56;22.20;99.90
20712;DHT22;10517;50.742;4.224;2023-05-10T14:33:22;21.90;99.90
20712;DHT22;10517;50.742;4.224;2023-05-10T14:35:48;21.80;99.90
20712;DHT22;10517;50.742;4.224;2023-05-10T14:38:14;21.70;99.90
20712;DHT22;10517;50.742;4.224;2023-05-10T14:40:40;21.40;99.90
20712;DHT22;10517;50.742;4.224;2023-05-10T14:43:05;20.80;99.90
20712;DHT22;10517;50.742;4.224;2023-05-10T14:45:31;20.60;99.90
20712;DHT22;10517;50.742;4.224;2023-05-10T14:47:57;20.20;99.90
20712;DHT22;10517;50.742;4.224;2023-05-10T14:50:23;19.20;99.90
20712;DHT22;10517;50.742;4.224;2023-05-10T14:52:48;18.80;99.90
20712;DHT22;10517;50.742;4.224;2023-05-10T14:55:15;18.50;99.90
20712;DHT22;10517;50.742;4.224;2023-05-10T14:57:41;17.80;99.90
20712;DHT22;10517;50.742;4.224;2023-05-10T15:00:08;17.50;99.90
20712;DHT22;10517;50.742;4.224;2023-05-10T15:02:34;17.40;99.90
20712;DHT22;10517;50.742;4.224;2023-05-10T15:05:00;17.30;99.90
20712;DHT22;10517;50.742;4.224;2023-05-10T15:07:25;17.10;99.90
20712;DHT22;10517;50.742;4.224;2023-05-10T15:09:51;17.10;99.90
20712;DHT22;10517;50.742;4.224;2023-05-10T15:12:18;17.10;99.90
20712;DHT22;10517;50.742;4.224;2023-05-10T15:14:43;17.10;99.90
20712;DHT22;10517;50.742;4.224;2023-05-10T15:17:10;17.10;99.90
20712;DHT22;10517;50.742;4.224;2023-05-10T15:19:36;17.00;99.90
20712;DHT22;10517;50.742;4.224;2023-05-10T15:22:03;17.20;99.90
20712;DHT22;10517;50.742;4.224;2023-05-10T15:24:29;17.20;99.90
20712;DHT22;10517;50.742;4.224;2023-05-10T15:26:54;17.40;99.90
20712;DHT22;10517;50.742;4.224;2023-05-10T15:29:20;17.70;99.90
20712;DHT22;10517;50.742;4.224;2023-05-10T15:31:49;17.90;99.90
20712;DHT22;10517;50.742;4.224;2023-05-10T15:34:16;17.90;99.90
20712;DHT22;10517;50.742;4.224;2023-05-10T15:36:42;17.90;99.90
20712;DHT22;10517;50.742;4.224;2023-05-10T15:39:08;17.80;99.90
20712;DHT22;10517;50.742;4.224;2023-05-10T15:41:36;17.70;99.90
20712;DHT22;10517;50.742;4.224;2023-05-10T15:44:02;18.00;99.90
20712;DHT22;10517;50.742;4.224;2023-05-10T15:46:28;17.90;99.90
20712;DHT22;10517;50.742;4.224;2023-05-10T15:48:54;18.00;99.90
20712;DHT22;10517;50.742;4.224;2023-05-10T15:51:20;18.00;99.90
20712;DHT22;10517;50.742;4.224;2023-05-10T15:53:46;18.10;99.90
20712;DHT22;10517;50.742;4.224;2023-05-10T15:56:12;18.10;99.90
20712;DHT22;10517;50.742;4.224;2023-05-10T15:58:39;18.30;99.90
20712;DHT22;10517;50.742;4.224;2023-05-10T16:01:05;18.50;99.90
20712;DHT22;10517;50.742;4.224;2023-05-10T16:03:31;18.90;99.90
20712;DHT22;10517;50.742;4.224;2023-05-10T16:05:57;19.20;99.90